createdAt,value
2017-10-01T00:00:31.742Z,99.90
2017-10-01T00:03:00.055Z,99.90
2017-10-01T00:05:28.365Z,99.90
2017-10-01T00:07:56.667Z,99.90
2017-10-01T00:10:24.991Z,99.90
2017-10-01T00:12:54.044Z,99.90
2017-10-01T00:15:22.325Z,99.90
2017-10-01T00:17:50.609Z,99.90
2017-10-01T00:20:19.662Z,99.90
2017-10-01T00:22:48.003Z,99.90
2017-10-01T00:25:16.296Z,99.90
2017-10-01T00:27:44.618Z,99.90
2017-10-01T00:30:12.903Z,99.90
2017-10-01T00:32:41.229Z,99.90
2017-10-01T00:35:09.547Z,99.90
2017-10-01T00:37:38.722Z,99.90
2017-10-01T00:40:07.018Z,99.90
2017-10-01T00:42:35.300Z,99.90
2017-10-01T00:45:03.710Z,99.90
2017-10-01T00:47:31.990Z,99.90
2017-10-01T00:50:00.272Z,99.90
2017-10-01T00:52:28.580Z,99.90
2017-10-01T00:54:57.634Z,99.90
2017-10-01T00:57:25.950Z,99.90
2017-10-01T00:59:54.247Z,99.90
2017-10-01T01:02:22.562Z,99.90
2017-10-01T01:04:50.853Z,99.90
2017-10-01T01:07:19.172Z,99.90
2017-10-01T01:09:47.487Z,99.90
2017-10-01T01:12:15.773Z,99.90
2017-10-01T01:14:44.094Z,99.90
2017-10-01T01:17:12.378Z,99.90
2017-10-01T01:19:40.663Z,99.90
2017-10-01T01:22:08.947Z,99.90
2017-10-01T01:24:37.684Z,99.90
2017-10-01T01:27:05.979Z,99.90
2017-10-01T01:29:34.298Z,99.90
2017-10-01T01:32:02.612Z,99.90
2017-10-01T01:34:30.930Z,99.90
2017-10-01T01:37:00.009Z,99.90
2017-10-01T01:39:28.332Z,99.90
2017-10-01T01:41:56.617Z,99.90
2017-10-01T01:44:24.907Z,99.90
2017-10-01T01:46:53.222Z,99.90
2017-10-01T01:49:21.540Z,99.90
2017-10-01T01:51:49.870Z,99.90
2017-10-01T01:54:18.922Z,99.90
2017-10-01T01:56:47.202Z,99.90
2017-10-01T01:59:15.518Z,99.90
2017-10-01T02:01:43.812Z,99.90
2017-10-01T02:04:12.220Z,99.90
2017-10-01T02:06:40.502Z,99.90
2017-10-01T02:09:09.588Z,99.90
2017-10-01T02:11:37.942Z,99.90
2017-10-01T02:14:06.278Z,99.90
2017-10-01T02:16:34.642Z,99.90
2017-10-01T02:19:02.975Z,99.90
2017-10-01T02:21:31.346Z,99.90
2017-10-01T02:23:59.725Z,99.90
2017-10-01T02:26:28.095Z,99.90
2017-10-01T02:28:56.450Z,99.90
2017-10-01T02:31:24.807Z,99.90
2017-10-01T02:33:53.116Z,99.90
2017-10-01T02:36:21.432Z,99.90
2017-10-01T02:38:49.783Z,99.90
2017-10-01T02:41:18.096Z,99.90
2017-10-01T02:43:46.409Z,99.90
2017-10-01T02:46:14.692Z,99.90
2017-10-01T02:48:43.023Z,99.90
2017-10-01T02:51:11.352Z,99.90
2017-10-01T02:53:40.395Z,99.90
2017-10-01T02:56:08.708Z,99.90
2017-10-01T02:58:36.995Z,99.90
2017-10-01T03:01:05.286Z,99.90
2017-10-01T03:03:34.331Z,99.90
2017-10-01T03:06:02.611Z,99.90
2017-10-01T03:08:30.905Z,99.90
2017-10-01T03:10:59.217Z,99.90
2017-10-01T03:13:27.511Z,99.90
2017-10-01T03:15:56.562Z,99.90
2017-10-01T03:18:24.869Z,99.90
2017-10-01T03:20:53.160Z,99.90
2017-10-01T03:23:21.477Z,99.90
2017-10-01T03:25:49.795Z,99.90
2017-10-01T03:28:18.105Z,99.90
2017-10-01T03:30:46.411Z,99.90
2017-10-01T03:33:14.726Z,99.90
2017-10-01T03:35:43.040Z,99.90
2017-10-01T03:38:11.431Z,99.90
2017-10-01T03:40:40.487Z,99.90
2017-10-01T03:43:08.762Z,99.90
2017-10-01T03:45:37.942Z,99.90
2017-10-01T03:48:06.235Z,99.90
2017-10-01T03:50:34.527Z,99.90
2017-10-01T03:53:02.823Z,99.90
2017-10-01T03:55:31.107Z,99.90
2017-10-01T03:57:59.425Z,99.90
2017-10-01T04:00:27.735Z,99.90
2017-10-01T04:02:56.042Z,99.90
2017-10-01T04:05:24.335Z,99.90
2017-10-01T04:07:52.647Z,99.90
2017-10-01T04:10:20.935Z,99.90
2017-10-01T04:12:49.256Z,99.90
2017-10-01T04:15:17.585Z,99.90
2017-10-01T04:17:45.874Z,99.90
2017-10-01T04:20:14.170Z,99.90
2017-10-01T04:22:42.466Z,99.90
2017-10-01T04:25:10.781Z,99.90
2017-10-01T04:27:39.076Z,99.90
2017-10-01T04:30:07.392Z,99.90
2017-10-01T04:32:35.679Z,99.90
2017-10-01T04:35:03.962Z,99.90
2017-10-01T04:37:32.268Z,99.90
2017-10-01T04:40:00.573Z,99.90
2017-10-01T04:42:28.865Z,99.90
2017-10-01T04:44:57.147Z,99.90
2017-10-01T04:47:25.469Z,99.90
2017-10-01T04:49:53.751Z,99.90
2017-10-01T04:52:22.059Z,99.90
2017-10-01T04:54:50.347Z,99.90
2017-10-01T04:57:18.644Z,99.90
2017-10-01T04:59:46.960Z,99.90
2017-10-01T05:02:15.275Z,99.90
2017-10-01T05:04:43.562Z,99.90
2017-10-01T05:07:11.878Z,99.90
2017-10-01T05:09:40.158Z,99.90
2017-10-01T05:12:08.474Z,99.90
2017-10-01T05:14:36.768Z,99.90
2017-10-01T05:17:05.078Z,99.90
2017-10-01T05:19:33.395Z,99.90
2017-10-01T05:22:01.682Z,99.90
2017-10-01T05:24:29.990Z,99.90
2017-10-01T05:26:58.278Z,99.90
2017-10-01T05:29:26.555Z,99.90
2017-10-01T05:31:55.660Z,99.90
2017-10-01T05:34:23.938Z,99.90
2017-10-01T05:36:52.222Z,99.90
2017-10-01T05:39:20.995Z,99.90
2017-10-01T05:41:50.040Z,99.90
2017-10-01T05:44:18.333Z,99.90
2017-10-01T05:46:46.791Z,99.90
2017-10-01T05:49:15.061Z,99.90
2017-10-01T05:51:43.353Z,99.90
2017-10-01T05:54:11.639Z,99.90
2017-10-01T05:56:39.942Z,99.90
2017-10-01T05:59:08.254Z,99.90
2017-10-01T06:01:36.536Z,99.90
2017-10-01T06:04:04.822Z,99.90
2017-10-01T06:06:33.903Z,99.90
2017-10-01T06:09:02.205Z,99.90
2017-10-01T06:11:30.515Z,99.90
2017-10-01T06:13:58.792Z,99.90
2017-10-01T06:16:27.067Z,99.90
2017-10-01T06:18:55.378Z,99.90
2017-10-01T06:21:23.661Z,99.90
2017-10-01T06:23:51.964Z,99.90
2017-10-01T06:26:20.253Z,99.90
2017-10-01T06:28:49.309Z,99.90
2017-10-01T06:31:17.609Z,99.90
2017-10-01T06:33:45.886Z,99.90
2017-10-01T06:36:14.199Z,99.90
2017-10-01T06:38:42.514Z,99.90
2017-10-01T06:41:10.781Z,99.90
2017-10-01T06:43:39.835Z,99.90
2017-10-01T06:46:08.111Z,99.90
2017-10-01T06:48:37.188Z,99.90
2017-10-01T06:51:05.473Z,99.90
2017-10-01T06:53:33.755Z,99.90
2017-10-01T06:56:02.865Z,99.90
2017-10-01T06:58:31.142Z,99.90
2017-10-01T07:01:00.182Z,99.90
2017-10-01T07:03:28.468Z,99.90
2017-10-01T07:05:56.873Z,99.90
2017-10-01T07:08:25.934Z,99.90
2017-10-01T07:10:54.226Z,99.90
2017-10-01T07:13:22.510Z,99.90
2017-10-01T07:15:51.149Z,99.90
2017-10-01T07:18:20.526Z,99.90
2017-10-01T07:20:49.183Z,99.90
2017-10-01T07:23:18.570Z,99.90
2017-10-01T07:25:47.830Z,99.90
2017-10-01T07:28:16.429Z,99.90
2017-10-01T07:30:45.791Z,99.90
2017-10-01T07:33:15.152Z,99.90
2017-10-01T07:35:43.502Z,99.90
2017-10-01T07:38:11.993Z,99.90
2017-10-01T07:40:40.503Z,99.90
2017-10-01T07:43:09.095Z,99.90
2017-10-01T07:45:38.028Z,99.90
2017-10-01T07:48:06.485Z,99.90
2017-10-01T07:50:35.129Z,99.90
2017-10-01T07:53:03.568Z,99.90
2017-10-01T07:55:32.057Z,99.90
2017-10-01T07:58:00.539Z,99.90
2017-10-01T08:00:29.072Z,99.90
2017-10-01T08:02:58.261Z,99.90
2017-10-01T08:05:27.378Z,99.90
2017-10-01T08:07:55.759Z,99.90
2017-10-01T08:10:24.457Z,99.90
2017-10-01T08:12:53.608Z,99.90
2017-10-01T08:15:22.024Z,99.90
2017-10-01T08:17:50.567Z,99.90
2017-10-01T08:20:19.827Z,99.90
2017-10-01T08:22:49.199Z,99.90
2017-10-01T08:25:18.559Z,99.90
2017-10-01T08:27:47.091Z,99.90
2017-10-01T08:30:15.692Z,99.90
2017-10-01T08:32:44.339Z,99.90
2017-10-01T08:35:12.877Z,99.90
2017-10-01T08:37:41.184Z,99.90
2017-10-01T08:40:09.463Z,99.90
2017-10-01T08:42:37.741Z,99.90
2017-10-01T08:45:06.826Z,99.90
2017-10-01T08:47:35.103Z,99.90
2017-10-01T08:50:03.418Z,99.90
2017-10-01T08:52:31.726Z,99.90
2017-10-01T08:55:00.782Z,99.90
2017-10-01T08:57:29.868Z,99.90
2017-10-01T08:59:58.162Z,99.90
2017-10-01T09:02:26.582Z,99.90
2017-10-01T09:04:54.882Z,99.90
2017-10-01T09:07:23.178Z,99.90
2017-10-01T09:09:51.471Z,99.90
2017-10-01T09:12:19.793Z,99.90
2017-10-01T09:14:48.116Z,99.90
2017-10-01T09:17:16.413Z,99.90
2017-10-01T09:19:45.515Z,99.90
2017-10-01T09:22:13.799Z,99.90
2017-10-01T09:24:42.087Z,99.90
2017-10-01T09:27:10.406Z,99.90
2017-10-01T09:29:38.718Z,99.90
2017-10-01T09:32:06.998Z,99.90
2017-10-01T09:34:35.428Z,99.90
2017-10-01T09:37:03.715Z,99.90
2017-10-01T09:39:32.017Z,99.90
2017-10-01T09:42:00.294Z,99.90
2017-10-01T09:44:28.794Z,99.90
2017-10-01T09:46:57.202Z,99.90
2017-10-01T09:49:25.514Z,99.90
2017-10-01T09:51:53.829Z,99.90
2017-10-01T09:54:22.155Z,99.90
2017-10-01T09:56:50.448Z,99.90
2017-10-01T09:59:18.742Z,98.80
2017-10-01T10:01:47.070Z,98.20
2017-10-01T10:04:16.138Z,98.10
2017-10-01T10:06:44.465Z,98.00
2017-10-01T10:09:12.801Z,98.50
2017-10-01T10:11:41.108Z,97.90
2017-10-01T10:14:10.155Z,96.60
2017-10-01T10:16:38.441Z,96.70
2017-10-01T10:19:07.503Z,98.40
2017-10-01T10:21:35.820Z,98.30
2017-10-01T10:24:04.110Z,99.90
2017-10-01T10:26:32.419Z,99.10
2017-10-01T10:29:00.746Z,99.90
2017-10-01T10:31:29.085Z,98.80
2017-10-01T10:33:57.391Z,97.80
2017-10-01T10:36:25.701Z,97.90
2017-10-01T10:38:54.022Z,94.50
2017-10-01T10:41:22.324Z,95.00
2017-10-01T10:43:50.643Z,94.50
2017-10-01T10:46:18.958Z,94.40
2017-10-01T10:48:47.274Z,95.60
2017-10-01T10:51:16.327Z,93.20
2017-10-01T10:53:44.617Z,93.20
2017-10-01T10:56:12.911Z,94.70
2017-10-01T10:58:41.329Z,91.30
2017-10-01T11:01:09.615Z,94.10
2017-10-01T11:03:38.664Z,92.40
2017-10-01T11:06:07.070Z,92.30
2017-10-01T11:08:35.350Z,94.40
2017-10-01T11:11:03.703Z,94.40
2017-10-01T11:13:32.021Z,94.90
2017-10-01T11:16:00.311Z,94.30
2017-10-01T11:18:28.623Z,98.10
2017-10-01T11:20:57.693Z,97.70
2017-10-01T11:23:26.890Z,97.60
2017-10-01T11:25:55.183Z,98.90
2017-10-01T11:28:24.244Z,99.90
2017-10-01T11:30:52.536Z,99.90
2017-10-01T11:33:20.853Z,99.90
2017-10-01T11:35:49.148Z,99.90
2017-10-01T11:38:17.446Z,99.90
2017-10-01T11:40:45.797Z,99.90
2017-10-01T11:43:14.102Z,99.90
2017-10-01T11:45:43.190Z,99.90
2017-10-01T11:48:11.520Z,99.90
2017-10-01T11:50:39.802Z,99.90
2017-10-01T11:53:08.503Z,99.00
2017-10-01T11:55:36.931Z,98.00
2017-10-01T11:58:06.091Z,99.40
2017-10-01T12:00:34.500Z,99.40
2017-10-01T12:03:03.561Z,98.10
2017-10-01T12:05:31.882Z,99.50
2017-10-01T12:08:00.171Z,99.70
2017-10-01T12:10:28.466Z,98.90
2017-10-01T12:12:56.747Z,97.30
2017-10-01T12:15:25.059Z,97.60
2017-10-01T12:17:53.350Z,98.40
2017-10-01T12:20:21.683Z,99.90
2017-10-01T12:22:50.363Z,98.50
2017-10-01T12:25:18.654Z,97.20
2017-10-01T12:27:46.947Z,98.10
2017-10-01T12:30:15.249Z,95.90
2017-10-01T12:32:43.541Z,97.40
2017-10-01T12:35:11.841Z,95.40
2017-10-01T12:37:40.131Z,96.40
2017-10-01T12:40:09.177Z,93.50
2017-10-01T12:42:37.503Z,93.50
2017-10-01T12:45:05.797Z,93.10
2017-10-01T12:47:34.113Z,92.20
2017-10-01T12:50:02.416Z,93.60
2017-10-01T12:52:30.823Z,94.20
2017-10-01T12:54:59.112Z,95.60
2017-10-01T12:57:27.392Z,92.20
2017-10-01T12:59:55.676Z,87.10
2017-10-01T13:02:23.996Z,78.00
2017-10-01T13:04:52.275Z,78.70
2017-10-01T13:07:20.564Z,79.40
2017-10-01T13:09:49.612Z,86.30
2017-10-01T13:12:17.902Z,86.40
2017-10-01T13:14:46.214Z,87.20
2017-10-01T13:17:14.567Z,89.90
2017-10-01T13:19:42.878Z,89.50
2017-10-01T13:22:11.167Z,91.50
2017-10-01T13:24:39.502Z,95.40
2017-10-01T13:27:08.549Z,94.00
2017-10-01T13:29:36.854Z,94.30
2017-10-01T13:32:05.197Z,95.00
2017-10-01T13:34:33.482Z,97.00
2017-10-01T13:37:01.799Z,96.10
2017-10-01T13:39:30.082Z,97.50
2017-10-01T13:41:58.368Z,96.80
2017-10-01T13:44:26.674Z,97.30
2017-10-01T13:46:54.956Z,94.80
2017-10-01T13:49:23.374Z,92.50
2017-10-01T13:51:51.673Z,88.00
2017-10-01T13:54:19.950Z,92.10
2017-10-01T13:56:48.230Z,92.40
2017-10-01T13:59:17.441Z,97.20
2017-10-01T14:01:45.759Z,97.10
2017-10-01T14:04:14.842Z,98.30
2017-10-01T14:06:43.129Z,98.30
2017-10-01T14:09:11.422Z,99.60
2017-10-01T14:11:39.714Z,98.00
2017-10-01T14:14:08.005Z,98.30
2017-10-01T14:16:36.325Z,99.40
2017-10-01T14:19:04.627Z,99.60
2017-10-01T14:21:33.250Z,99.90
2017-10-01T14:24:02.303Z,99.80
2017-10-01T14:26:30.586Z,99.70
2017-10-01T14:28:58.885Z,95.70
2017-10-01T14:31:27.175Z,92.60
2017-10-01T14:33:55.626Z,92.00
2017-10-01T14:36:24.759Z,92.40
2017-10-01T14:38:53.213Z,92.40
2017-10-01T14:41:21.491Z,94.80
2017-10-01T14:43:49.782Z,97.20
2017-10-01T14:46:18.118Z,98.40
2017-10-01T14:48:46.407Z,99.90
2017-10-01T14:51:14.697Z,99.90
2017-10-01T14:53:43.108Z,99.90
2017-10-01T14:56:11.418Z,99.90
2017-10-01T14:58:39.699Z,99.90
2017-10-01T15:01:07.989Z,99.90
2017-10-01T15:03:36.396Z,99.90
2017-10-01T15:06:04.694Z,99.90
2017-10-01T15:08:33.005Z,99.90
2017-10-01T15:11:01.302Z,99.10
2017-10-01T15:13:29.608Z,96.50
2017-10-01T15:15:57.887Z,95.80
2017-10-01T15:18:26.933Z,99.10
2017-10-01T15:20:55.229Z,99.00
2017-10-01T15:23:23.508Z,99.90
2017-10-01T15:25:52.558Z,99.90
2017-10-01T15:28:20.857Z,99.90
2017-10-01T15:30:49.142Z,99.90
2017-10-01T15:33:17.455Z,99.90
2017-10-01T15:35:45.778Z,99.90
2017-10-01T15:38:14.083Z,99.90
2017-10-01T15:40:42.364Z,99.90
2017-10-01T15:43:10.650Z,99.90
2017-10-01T15:45:38.959Z,99.90
2017-10-01T15:48:07.284Z,99.90
2017-10-01T15:50:35.570Z,99.90
2017-10-01T15:53:03.857Z,99.90
2017-10-01T15:55:32.149Z,99.90
2017-10-01T15:58:01.217Z,99.90
2017-10-01T16:00:29.519Z,99.90
2017-10-01T16:02:57.939Z,99.90
2017-10-01T16:05:26.219Z,99.90
2017-10-01T16:07:54.526Z,99.90
2017-10-01T16:10:22.845Z,99.90
2017-10-01T16:12:51.129Z,99.90
2017-10-01T16:15:19.421Z,99.90
2017-10-01T16:17:47.721Z,99.90
2017-10-01T16:20:16.041Z,99.90
2017-10-01T16:22:44.329Z,99.90
2017-10-01T16:25:12.611Z,99.90
2017-10-01T16:27:40.895Z,99.90
2017-10-01T16:30:09.187Z,99.90
2017-10-01T16:32:38.234Z,99.90
2017-10-01T16:35:06.544Z,99.90
2017-10-01T16:37:34.821Z,99.90
2017-10-01T16:40:03.342Z,99.90
2017-10-01T16:42:31.638Z,99.90
2017-10-01T16:44:59.927Z,99.90
2017-10-01T16:47:28.218Z,99.90
2017-10-01T16:49:57.279Z,99.90
2017-10-01T16:52:25.811Z,99.90
2017-10-01T16:54:54.210Z,99.90
2017-10-01T16:57:22.547Z,99.90
2017-10-01T16:59:51.590Z,99.90
2017-10-01T17:02:19.879Z,99.90
2017-10-01T17:04:48.196Z,99.90
2017-10-01T17:07:17.416Z,99.90
2017-10-01T17:09:45.958Z,99.90
2017-10-01T17:12:14.250Z,99.90
2017-10-01T17:14:42.540Z,99.90
2017-10-01T17:17:10.851Z,99.90
2017-10-01T17:19:39.155Z,99.90
2017-10-01T17:22:07.489Z,99.90
2017-10-01T17:24:35.803Z,99.90
2017-10-01T17:27:04.864Z,99.90
2017-10-01T17:29:33.330Z,99.90
2017-10-01T17:32:01.785Z,99.90
2017-10-01T17:34:30.107Z,99.90
2017-10-01T17:36:58.394Z,99.90
2017-10-01T17:39:27.491Z,99.90
2017-10-01T17:41:55.788Z,99.90
2017-10-01T17:44:24.087Z,99.90
2017-10-01T17:46:52.398Z,99.90
2017-10-01T17:49:20.737Z,99.90
2017-10-01T17:51:49.050Z,99.90
2017-10-01T17:54:17.956Z,99.90
2017-10-01T17:56:46.282Z,99.90
2017-10-01T17:59:14.562Z,99.90
2017-10-01T18:01:42.858Z,99.90
2017-10-01T18:04:11.146Z,99.90
2017-10-01T18:06:39.558Z,99.90
2017-10-01T18:09:08.169Z,99.90
2017-10-01T18:11:36.685Z,99.90
2017-10-01T18:14:05.190Z,99.90
2017-10-01T18:16:33.477Z,99.90
2017-10-01T18:19:01.826Z,99.90
2017-10-01T18:21:30.343Z,99.90
2017-10-01T18:23:59.395Z,99.90
2017-10-01T18:26:27.678Z,99.90
2017-10-01T18:28:55.959Z,99.90
2017-10-01T18:31:25.012Z,99.90
2017-10-01T18:33:53.326Z,99.90
2017-10-01T18:36:22.707Z,99.90
2017-10-01T18:38:51.757Z,99.90
2017-10-01T18:41:20.043Z,99.90
2017-10-01T18:43:48.326Z,99.90
2017-10-01T18:46:17.461Z,99.90
2017-10-01T18:48:45.763Z,99.90
2017-10-01T18:51:14.070Z,99.90
2017-10-01T18:53:42.363Z,99.90
2017-10-01T18:56:11.438Z,99.90
2017-10-01T18:58:39.727Z,99.90
2017-10-01T19:01:08.069Z,99.90
2017-10-01T19:03:36.353Z,99.90
2017-10-01T19:06:06.322Z,99.90
2017-10-01T19:08:35.561Z,99.90
2017-10-01T19:11:03.942Z,99.90
2017-10-01T19:13:32.998Z,99.90
2017-10-01T19:16:01.282Z,99.90
2017-10-01T19:18:29.557Z,99.90
2017-10-01T19:20:58.641Z,99.90
2017-10-01T19:23:26.958Z,99.90
2017-10-01T19:25:55.272Z,99.90
2017-10-01T19:28:23.669Z,99.90
2017-10-01T19:30:51.942Z,99.90
2017-10-01T19:33:20.217Z,99.90
2017-10-01T19:35:48.495Z,99.90
2017-10-01T19:38:17.550Z,99.90
2017-10-01T19:40:45.853Z,99.90
2017-10-01T19:43:14.138Z,99.90
2017-10-01T19:45:42.458Z,99.90
2017-10-01T19:48:11.497Z,99.90
2017-10-01T19:50:40.315Z,99.90
2017-10-01T19:53:08.619Z,99.90
2017-10-01T19:55:37.027Z,99.90
2017-10-01T19:58:05.343Z,99.90
2017-10-01T20:00:33.622Z,99.90
2017-10-01T20:03:01.956Z,99.90
2017-10-01T20:05:31.391Z,99.90
2017-10-01T20:08:00.591Z,99.90
2017-10-01T20:10:29.756Z,99.90
2017-10-01T20:12:58.120Z,99.90
2017-10-01T20:15:26.486Z,99.90
2017-10-01T20:17:54.798Z,99.90
2017-10-01T20:20:23.126Z,99.90
2017-10-01T20:22:51.418Z,99.90
2017-10-01T20:25:19.715Z,99.90
2017-10-01T20:27:48.004Z,99.90
2017-10-01T20:30:16.282Z,99.90
2017-10-01T20:32:44.617Z,99.90
2017-10-01T20:35:12.912Z,99.90
2017-10-01T20:37:41.195Z,99.90
2017-10-01T20:40:09.619Z,99.90
2017-10-01T20:42:37.929Z,99.90
2017-10-01T20:45:06.202Z,99.90
2017-10-01T20:47:34.503Z,99.90
2017-10-01T20:50:02.787Z,99.90
2017-10-01T20:52:31.066Z,99.90
2017-10-01T20:55:00.120Z,99.90
2017-10-01T20:57:28.391Z,99.90
2017-10-01T20:59:57.474Z,99.90
2017-10-01T21:02:25.871Z,99.90
2017-10-01T21:04:54.163Z,99.90
2017-10-01T21:07:22.462Z,99.90
2017-10-01T21:09:50.752Z,99.90
2017-10-01T21:12:19.043Z,99.90
2017-10-01T21:14:47.381Z,99.90
2017-10-01T21:17:15.669Z,99.90
2017-10-01T21:19:43.941Z,99.90
2017-10-01T21:22:12.222Z,99.90
2017-10-01T21:24:41.270Z,99.90
2017-10-01T21:27:09.577Z,99.90
2017-10-01T21:29:37.919Z,99.90
2017-10-01T21:32:06.199Z,99.90
2017-10-01T21:34:34.470Z,99.90
2017-10-01T21:37:02.806Z,99.90
2017-10-01T21:39:31.086Z,99.90
2017-10-01T21:41:59.370Z,99.90
2017-10-01T21:44:27.646Z,99.90
2017-10-01T21:46:56.710Z,99.90
2017-10-01T21:49:25.113Z,99.90
2017-10-01T21:51:53.493Z,99.90
2017-10-01T21:54:21.808Z,99.90
2017-10-01T21:59:47.094Z,99.90
2017-10-01T22:02:15.517Z,99.90
2017-10-01T22:04:43.958Z,99.90
2017-10-01T22:07:12.230Z,99.90
2017-10-01T22:09:40.516Z,99.90
2017-10-01T22:12:08.797Z,99.90
2017-10-01T22:14:37.078Z,99.90
2017-10-01T22:17:05.484Z,99.90
2017-10-01T22:19:34.525Z,99.90
2017-10-01T22:22:02.814Z,99.90
2017-10-01T22:24:31.090Z,99.90
2017-10-01T22:26:59.401Z,99.90
2017-10-01T22:29:28.446Z,99.90
2017-10-01T22:31:56.737Z,99.90
2017-10-01T22:34:25.935Z,99.90
2017-10-01T22:36:54.983Z,99.90
2017-10-01T22:39:23.267Z,99.90
2017-10-01T22:41:51.562Z,99.90
2017-10-01T22:44:20.611Z,99.90
2017-10-01T22:46:48.930Z,99.90
2017-10-01T22:49:17.234Z,99.90
2017-10-01T22:51:45.519Z,99.90
2017-10-01T22:54:13.842Z,99.90
2017-10-01T22:56:42.115Z,99.90
2017-10-01T22:59:10.399Z,99.90
2017-10-01T23:01:39.447Z,99.90
2017-10-01T23:04:07.733Z,99.90
2017-10-01T23:06:36.044Z,99.90
2017-10-01T23:09:04.383Z,99.90
2017-10-01T23:11:32.692Z,99.90
2017-10-01T23:14:01.061Z,99.90
2017-10-01T23:16:31.048Z,99.90
2017-10-01T23:18:59.358Z,99.90
2017-10-01T23:21:28.434Z,99.90
2017-10-01T23:23:56.738Z,99.90
2017-10-01T23:26:25.023Z,99.90
2017-10-01T23:28:53.298Z,99.90
2017-10-01T23:31:21.598Z,99.90
2017-10-01T23:33:49.869Z,99.90
2017-10-01T23:36:18.279Z,99.90
2017-10-01T23:38:46.555Z,99.90
2017-10-01T23:41:14.841Z,99.90
2017-10-01T23:43:43.116Z,99.90
2017-10-01T23:46:11.393Z,99.90
2017-10-01T23:48:40.434Z,99.90
2017-10-01T23:51:08.735Z,99.90
2017-10-01T23:53:37.020Z,99.90
2017-10-01T23:56:06.091Z,99.90
2017-10-01T23:58:34.393Z,99.90
